createdAt,value
2019-02-20T00:00:45.197Z,6.70
2019-02-20T00:03:15.604Z,6.70
2019-02-20T00:05:46.299Z,6.70
2019-02-20T00:08:19.831Z,6.70
2019-02-20T00:10:53.128Z,6.70
2019-02-20T00:13:25.545Z,6.70
2019-02-20T00:15:55.581Z,6.70
2019-02-20T00:18:25.852Z,6.70
2019-02-20T00:20:56.163Z,6.60
2019-02-20T00:23:29.534Z,6.60
2019-02-20T00:26:01.587Z,6.60
2019-02-20T00:28:31.687Z,6.50
2019-02-20T00:31:01.403Z,6.50
2019-02-20T00:33:35.330Z,6.40
2019-02-20T00:36:05.333Z,6.40
2019-02-20T00:38:38.416Z,6.30
2019-02-20T00:41:10.164Z,6.30
2019-02-20T00:43:43.729Z,6.30
2019-02-20T00:46:22.956Z,6.20
2019-02-20T00:49:02.156Z,6.20
2019-02-20T00:51:46.138Z,6.10
2019-02-20T00:54:17.386Z,6.10
2019-02-20T00:56:47.186Z,6.10
2019-02-20T00:59:20.038Z,6.00
2019-02-20T01:01:50.239Z,6.00
2019-02-20T01:04:20.526Z,6.00
2019-02-20T01:06:50.780Z,5.90
2019-02-20T01:09:20.665Z,5.90
2019-02-20T01:11:50.903Z,5.90
2019-02-20T01:14:23.667Z,5.80
2019-02-20T01:16:55.639Z,5.80
2019-02-20T01:19:26.026Z,5.80
2019-02-20T01:21:57.696Z,5.80
2019-02-20T01:24:34.100Z,5.80
2019-02-20T01:27:05.340Z,5.80
2019-02-20T01:29:35.280Z,5.80
2019-02-20T01:32:05.818Z,5.80
2019-02-20T01:34:35.792Z,5.80
2019-02-20T01:37:06.164Z,5.80
2019-02-20T01:39:36.473Z,5.70
2019-02-20T01:42:06.203Z,5.70
2019-02-20T01:44:36.235Z,5.70
2019-02-20T01:47:06.227Z,5.70
2019-02-20T01:49:35.914Z,5.70
2019-02-20T01:52:05.655Z,5.70
2019-02-20T01:54:35.293Z,5.70
2019-02-20T01:57:04.915Z,5.70
2019-02-20T01:59:35.203Z,5.70
2019-02-20T02:02:08.951Z,5.80
2019-02-20T02:04:45.014Z,5.80
2019-02-20T02:07:15.271Z,5.80
2019-02-20T02:09:45.126Z,5.80
2019-02-20T02:12:14.911Z,5.80
2019-02-20T02:14:44.976Z,5.80
2019-02-20T02:17:14.590Z,5.80
2019-02-20T02:19:44.269Z,5.70
2019-02-20T02:22:13.952Z,5.80
2019-02-20T02:24:43.562Z,5.80
2019-02-20T02:27:13.376Z,5.70
2019-02-20T02:29:43.106Z,5.80
2019-02-20T02:32:12.878Z,5.70
2019-02-20T02:34:42.585Z,5.70
2019-02-20T02:37:12.246Z,5.70
2019-02-20T02:39:41.902Z,5.70
2019-02-20T02:42:11.530Z,5.70
2019-02-20T02:44:41.624Z,5.70
2019-02-20T02:47:11.336Z,5.70
2019-02-20T02:49:41.002Z,5.70
2019-02-20T02:52:10.710Z,5.70
2019-02-20T02:54:44.541Z,5.70
2019-02-20T02:57:14.766Z,5.70
2019-02-20T02:59:44.553Z,5.80
2019-02-20T03:02:14.707Z,5.80
2019-02-20T03:04:44.370Z,5.80
2019-02-20T03:07:14.031Z,5.80
2019-02-20T03:09:43.755Z,5.80
2019-02-20T03:12:13.424Z,5.80
2019-02-20T03:14:43.928Z,5.80
2019-02-20T03:17:13.590Z,5.80
2019-02-20T03:19:43.244Z,5.70
2019-02-20T03:22:12.840Z,5.70
2019-02-20T03:24:42.779Z,5.70
2019-02-20T03:27:12.881Z,5.70
2019-02-20T03:29:42.729Z,5.80
2019-02-20T03:32:13.259Z,5.80
2019-02-20T03:34:43.223Z,5.80
2019-02-20T03:37:13.051Z,5.80
2019-02-20T03:39:43.242Z,5.80
2019-02-20T03:42:13.472Z,5.80
2019-02-20T03:44:43.206Z,5.80
2019-02-20T03:47:12.904Z,5.70
2019-02-20T03:49:42.756Z,5.70
2019-02-20T03:52:13.382Z,5.70
2019-02-20T03:54:46.026Z,5.70
2019-02-20T03:57:16.366Z,5.70
2019-02-20T03:59:46.580Z,5.70
2019-02-20T04:02:16.395Z,5.70
2019-02-20T04:04:47.156Z,5.60
2019-02-20T04:07:17.652Z,5.60
2019-02-20T04:09:47.789Z,5.60
2019-02-20T04:12:17.500Z,5.60
2019-02-20T04:14:47.745Z,5.60
2019-02-20T04:17:17.541Z,5.60
2019-02-20T04:19:47.513Z,5.60
2019-02-20T04:22:17.316Z,5.70
2019-02-20T04:24:46.984Z,5.70
2019-02-20T04:27:17.176Z,5.60
2019-02-20T04:29:47.442Z,5.50
2019-02-20T04:32:20.197Z,5.50
2019-02-20T04:34:50.170Z,5.40
2019-02-20T04:37:20.530Z,5.40
2019-02-20T04:39:54.105Z,5.30
2019-02-20T04:42:24.988Z,5.40
2019-02-20T04:44:55.251Z,5.50
2019-02-20T04:47:25.075Z,5.50
2019-02-20T04:49:54.903Z,5.40
2019-02-20T04:52:24.703Z,5.40
2019-02-20T04:54:54.695Z,5.40
2019-02-20T04:57:24.410Z,5.40
2019-02-20T04:59:54.384Z,5.40
2019-02-20T05:02:24.379Z,5.40
2019-02-20T05:04:54.184Z,5.40
2019-02-20T05:07:24.412Z,5.40
2019-02-20T05:09:54.050Z,5.50
2019-02-20T05:12:23.764Z,5.50
2019-02-20T05:14:53.568Z,5.60
2019-02-20T05:17:23.376Z,5.50
2019-02-20T05:19:53.170Z,5.50
2019-02-20T05:22:25.921Z,5.50
2019-02-20T05:24:59.557Z,5.50
2019-02-20T05:27:29.240Z,5.60
2019-02-20T05:29:58.979Z,5.60
2019-02-20T05:32:28.645Z,5.70
2019-02-20T05:34:58.296Z,5.70
2019-02-20T05:37:28.399Z,5.70
2019-02-20T05:40:04.008Z,5.60
2019-02-20T05:42:33.646Z,5.60
2019-02-20T05:45:03.372Z,5.60
2019-02-20T05:47:33.047Z,5.50
2019-02-20T05:50:02.902Z,5.50
2019-02-20T05:52:32.576Z,5.50
2019-02-20T05:55:04.891Z,5.50
2019-02-20T05:57:36.519Z,5.50
2019-02-20T06:00:09.688Z,5.50
2019-02-20T06:02:40.692Z,5.50
2019-02-20T06:05:10.693Z,5.60
2019-02-20T06:07:40.542Z,5.50
2019-02-20T06:10:10.467Z,5.50
2019-02-20T06:12:40.445Z,5.40
2019-02-20T06:15:10.523Z,5.40
2019-02-20T06:17:40.271Z,5.50
2019-02-20T06:20:10.372Z,5.50
2019-02-20T06:22:41.188Z,5.50
2019-02-20T06:25:10.906Z,5.50
2019-02-20T06:27:41.188Z,5.50
2019-02-20T06:30:11.662Z,5.50
2019-02-20T06:32:41.367Z,5.50
2019-02-20T06:35:11.107Z,5.40
2019-02-20T06:37:45.904Z,5.40
2019-02-20T06:40:17.151Z,5.40
2019-02-20T06:42:47.456Z,5.40
2019-02-20T06:45:17.387Z,5.40
2019-02-20T06:47:52.462Z,5.40
2019-02-20T06:50:26.562Z,5.40
2019-02-20T06:53:04.129Z,5.30
2019-02-20T06:55:41.179Z,5.20
2019-02-20T06:58:11.030Z,5.20
2019-02-20T07:00:41.167Z,5.20
2019-02-20T07:03:11.306Z,5.20
2019-02-20T07:05:46.984Z,5.20
2019-02-20T07:08:53.077Z,5.30
2019-02-20T07:12:06.624Z,5.30
2019-02-20T07:14:51.924Z,5.40
2019-02-20T07:17:56.088Z,5.40
2019-02-20T07:21:08.336Z,5.50
2019-02-20T07:24:06.941Z,5.40
2019-02-20T07:27:18.974Z,5.40
2019-02-20T07:30:04.761Z,5.50
2019-02-20T07:32:35.118Z,5.50
2019-02-20T07:35:05.228Z,5.60
2019-02-20T07:37:40.986Z,5.70
2019-02-20T07:40:12.417Z,5.80
2019-02-20T07:42:43.834Z,5.60
2019-02-20T07:45:15.847Z,5.90
2019-02-20T07:47:45.515Z,6.00
2019-02-20T07:50:20.319Z,6.00
2019-02-20T07:52:51.283Z,6.10
2019-02-20T07:55:21.985Z,6.00
2019-02-20T07:57:52.320Z,6.00
2019-02-20T08:00:22.058Z,6.10
2019-02-20T08:02:51.796Z,6.20
2019-02-20T08:05:22.070Z,6.30
2019-02-20T08:07:51.873Z,6.50
2019-02-20T08:10:24.873Z,6.60
2019-02-20T08:12:57.176Z,6.60
2019-02-20T08:15:30.810Z,6.70
2019-02-20T08:18:03.268Z,6.70
2019-02-20T08:20:35.147Z,6.60
2019-02-20T08:23:05.394Z,6.60
2019-02-20T08:25:35.339Z,6.60
2019-02-20T08:28:16.260Z,6.50
2019-02-20T08:30:56.873Z,6.50
2019-02-20T08:33:34.470Z,6.40
2019-02-20T08:36:20.381Z,6.50
2019-02-20T08:38:52.242Z,6.50
2019-02-20T08:41:25.630Z,6.70
2019-02-20T08:43:55.463Z,6.90
2019-02-20T08:46:27.254Z,7.20
2019-02-20T08:49:00.540Z,7.60
2019-02-20T08:51:30.208Z,7.70
2019-02-20T08:54:07.556Z,8.00
2019-02-20T08:56:40.436Z,8.10
2019-02-20T08:59:11.187Z,8.30
2019-02-20T09:01:46.577Z,8.50
2019-02-20T09:04:16.814Z,8.30
2019-02-20T09:06:47.250Z,8.40
2019-02-20T09:09:16.934Z,8.30
2019-02-20T09:11:49.231Z,8.40
2019-02-20T09:14:26.739Z,8.60
2019-02-20T09:16:57.246Z,8.70
2019-02-20T09:19:27.543Z,8.80
2019-02-20T09:21:58.293Z,9.10
2019-02-20T09:24:30.339Z,9.10
2019-02-20T09:27:06.976Z,9.30
2019-02-20T09:29:38.396Z,9.50
2019-02-20T09:32:08.284Z,9.80
2019-02-20T09:34:41.301Z,10.00
2019-02-20T09:37:11.186Z,10.20
2019-02-20T09:39:40.868Z,10.20
2019-02-20T09:42:15.675Z,10.10
2019-02-20T09:44:52.180Z,10.10
2019-02-20T09:47:22.278Z,10.20
2019-02-20T09:49:52.170Z,10.40
2019-02-20T09:52:22.691Z,10.50
2019-02-20T09:54:52.439Z,10.70
2019-02-20T09:57:25.740Z,10.80
2019-02-20T09:59:59.550Z,10.70
2019-02-20T10:02:29.812Z,10.70
2019-02-20T10:05:04.651Z,10.60
2019-02-20T10:07:36.177Z,10.60
2019-02-20T10:10:10.307Z,10.50
2019-02-20T10:12:39.923Z,10.60
2019-02-20T10:15:14.287Z,10.50
2019-02-20T10:17:46.948Z,10.40
2019-02-20T10:20:16.703Z,10.40
2019-02-20T10:22:47.183Z,10.40
2019-02-20T10:25:20.204Z,10.50
2019-02-20T10:27:54.352Z,10.70
2019-02-20T10:30:28.994Z,10.80
2019-02-20T10:33:10.280Z,10.90
2019-02-20T10:35:46.228Z,11.00
2019-02-20T10:38:16.469Z,11.20
2019-02-20T10:40:46.250Z,11.30
2019-02-20T10:43:31.916Z,11.30
2019-02-20T10:46:09.860Z,11.50
2019-02-20T10:48:39.948Z,11.80
2019-02-20T10:51:10.144Z,12.00
2019-02-20T10:53:40.171Z,12.10
2019-02-20T10:56:22.003Z,12.30
2019-02-20T10:59:00.805Z,12.40
2019-02-20T11:01:30.869Z,12.40
2019-02-20T11:04:04.877Z,12.50
2019-02-20T11:06:35.027Z,13.00
2019-02-20T11:09:10.204Z,14.30
2019-02-20T11:11:43.103Z,15.20
2019-02-20T11:14:12.940Z,16.00
2019-02-20T11:16:45.802Z,16.80
2019-02-20T11:19:16.276Z,17.10
2019-02-20T11:21:46.174Z,17.30
2019-02-20T11:24:17.893Z,17.90
2019-02-20T11:26:54.821Z,18.00
2019-02-20T11:29:19.120Z,18.10
2019-02-20T11:31:49.082Z,17.60
2019-02-20T11:34:19.840Z,17.40
2019-02-20T11:36:49.685Z,17.40
2019-02-20T11:39:19.690Z,16.50
2019-02-20T11:41:49.794Z,15.60
2019-02-20T11:44:21.212Z,15.20
2019-02-20T11:46:52.629Z,15.10
2019-02-20T11:49:23.237Z,15.30
2019-02-20T11:51:53.421Z,14.70
2019-02-20T11:54:26.214Z,14.10
2019-02-20T11:56:59.596Z,13.60
2019-02-20T11:59:48.813Z,13.20
2019-02-20T12:02:37.520Z,13.40
2019-02-20T12:05:20.415Z,14.00
2019-02-20T12:07:53.572Z,15.00
2019-02-20T12:10:28.718Z,15.60
2019-02-20T12:13:04.847Z,15.90
2019-02-20T12:15:40.433Z,16.30
2019-02-20T12:18:17.163Z,17.10
2019-02-20T12:20:44.484Z,17.20
2019-02-20T12:23:16.229Z,17.40
2019-02-20T12:25:46.122Z,17.50
2019-02-20T12:28:16.651Z,17.90
2019-02-20T12:30:57.802Z,18.00
2019-02-20T12:33:30.377Z,18.10
2019-02-20T12:36:03.291Z,18.30
2019-02-20T12:38:33.334Z,18.10
2019-02-20T12:41:03.453Z,17.90
2019-02-20T12:43:39.429Z,17.70
2019-02-20T12:46:15.290Z,17.30
2019-02-20T12:48:43.491Z,16.80
2019-02-20T12:51:19.294Z,16.40
2019-02-20T12:53:52.990Z,16.30
2019-02-20T12:56:24.899Z,16.50
2019-02-20T12:58:55.313Z,16.70
2019-02-20T13:01:34.659Z,16.10
2019-02-20T13:04:05.820Z,15.80
2019-02-20T13:06:35.506Z,15.70
2019-02-20T13:09:14.611Z,15.40
2019-02-20T13:11:52.011Z,15.20
2019-02-20T13:14:36.713Z,15.10
2019-02-20T13:17:11.081Z,15.10
2019-02-20T13:19:56.854Z,15.10
2019-02-20T13:22:29.052Z,14.90
2019-02-20T13:25:04.054Z,15.20
2019-02-20T13:27:34.356Z,15.80
2019-02-20T13:30:12.925Z,16.20
2019-02-20T13:32:45.344Z,16.20
2019-02-20T13:35:18.685Z,16.10
2019-02-20T13:37:50.350Z,16.00
2019-02-20T13:40:24.336Z,15.70
2019-02-20T13:42:56.255Z,15.80
2019-02-20T13:45:33.441Z,16.50
2019-02-20T13:48:12.304Z,16.60
2019-02-20T13:50:45.362Z,16.20
2019-02-20T13:53:20.303Z,15.30
2019-02-20T13:55:55.799Z,15.00
2019-02-20T13:58:29.592Z,14.40
2019-02-20T14:01:02.195Z,14.00
2019-02-20T14:03:34.518Z,13.90
2019-02-20T14:06:07.868Z,13.90
2019-02-20T14:08:45.060Z,13.80
2019-02-20T14:11:20.341Z,13.70
2019-02-20T14:13:53.427Z,13.80
2019-02-20T14:16:23.752Z,13.90
2019-02-20T14:18:56.600Z,13.80
2019-02-20T14:21:35.638Z,13.70
2019-02-20T14:24:10.620Z,13.60
2019-02-20T14:26:43.186Z,13.50
2019-02-20T14:29:21.087Z,13.60
2019-02-20T14:31:59.097Z,13.70
2019-02-20T14:34:33.831Z,13.90
2019-02-20T14:37:04.861Z,13.90
2019-02-20T14:39:36.293Z,13.90
2019-02-20T14:42:16.712Z,13.80
2019-02-20T14:44:57.931Z,13.70
2019-02-20T14:47:39.212Z,13.70
2019-02-20T14:50:11.970Z,13.60
2019-02-20T14:52:48.624Z,13.60
2019-02-20T14:55:24.292Z,13.60
2019-02-20T14:57:56.082Z,13.50
2019-02-20T15:00:29.077Z,13.60
2019-02-20T15:02:59.486Z,13.50
2019-02-20T15:05:30.544Z,13.50
2019-02-20T15:08:03.311Z,13.50
2019-02-20T15:10:37.243Z,13.40
2019-02-20T15:13:11.001Z,13.40
2019-02-20T15:15:50.480Z,13.30
2019-02-20T15:18:31.784Z,13.10
2019-02-20T15:21:04.692Z,13.30
2019-02-20T15:23:37.761Z,13.30
2019-02-20T15:26:17.025Z,13.30
2019-02-20T15:29:13.151Z,13.10
2019-02-20T15:31:53.068Z,12.90
2019-02-20T15:34:36.575Z,12.90
2019-02-20T15:37:23.455Z,12.90
2019-02-20T15:40:10.211Z,12.80
2019-02-20T15:42:40.135Z,12.80
2019-02-20T15:45:10.457Z,12.80
2019-02-20T15:47:49.169Z,12.70
2019-02-20T15:50:19.701Z,12.60
2019-02-20T15:52:49.415Z,12.60
2019-02-20T15:55:24.086Z,12.50
2019-02-20T15:58:00.266Z,12.50
2019-02-20T16:00:38.319Z,12.50
2019-02-20T16:03:08.402Z,12.50
2019-02-20T16:05:43.210Z,12.50
2019-02-20T16:08:13.216Z,12.40
2019-02-20T16:10:43.008Z,12.40
2019-02-20T16:13:18.840Z,12.40
2019-02-20T16:15:48.698Z,12.40
2019-02-20T16:18:20.062Z,12.40
2019-02-20T16:20:50.973Z,12.40
2019-02-20T16:23:23.232Z,12.40
2019-02-20T16:26:25.912Z,12.30
2019-02-20T16:29:04.625Z,12.30
2019-02-20T16:31:44.728Z,12.30
2019-02-20T16:34:21.299Z,12.20
2019-02-20T16:36:53.079Z,12.10
2019-02-20T16:39:30.528Z,12.10
2019-02-20T16:42:00.421Z,12.10
2019-02-20T16:44:32.055Z,12.10
2019-02-20T16:47:07.218Z,12.20
2019-02-20T16:49:38.635Z,12.10
2019-02-20T16:52:16.076Z,12.10
2019-02-20T16:55:01.749Z,12.10
2019-02-20T16:57:55.785Z,12.00
2019-02-20T17:00:20.093Z,12.00
2019-02-20T17:02:51.162Z,11.90
2019-02-20T17:05:21.368Z,11.80
2019-02-20T17:08:04.175Z,11.80
2019-02-20T17:10:45.202Z,11.70
2019-02-20T17:13:28.391Z,11.70
2019-02-20T17:15:58.440Z,11.60
2019-02-20T17:18:30.515Z,11.60
2019-02-20T17:21:04.185Z,11.60
2019-02-20T17:23:42.207Z,11.50
2019-02-20T17:26:15.101Z,11.50
2019-02-20T17:28:50.964Z,11.40
2019-02-20T17:31:35.247Z,11.40
2019-02-20T17:34:10.264Z,11.40
2019-02-20T17:36:44.409Z,11.40
2019-02-20T17:39:17.131Z,11.40
2019-02-20T17:41:52.875Z,11.40
2019-02-20T17:44:32.159Z,11.30
2019-02-20T17:47:04.520Z,11.30
2019-02-20T17:49:37.065Z,11.30
2019-02-20T17:52:06.719Z,11.30
2019-02-20T17:55:04.257Z,11.30
2019-02-20T17:57:40.416Z,11.30
2019-02-20T18:00:12.516Z,11.30
2019-02-20T18:02:45.606Z,11.30
2019-02-20T18:05:15.413Z,11.20
2019-02-20T18:07:54.646Z,11.20
2019-02-20T18:10:26.337Z,11.20
2019-02-20T18:13:07.006Z,11.10
2019-02-20T18:16:17.997Z,11.10
2019-02-20T18:19:02.669Z,11.00
2019-02-20T18:21:41.646Z,11.00
2019-02-20T18:24:16.895Z,11.00
2019-02-20T18:26:51.206Z,11.00
2019-02-20T18:29:24.448Z,10.90
2019-02-20T18:31:58.529Z,10.90
2019-02-20T18:34:47.218Z,10.90
2019-02-20T18:37:22.328Z,10.80
2019-02-20T18:39:54.361Z,10.80
2019-02-20T18:42:33.404Z,10.80
2019-02-20T18:45:37.645Z,10.80
2019-02-20T18:48:20.050Z,10.80
2019-02-20T18:50:53.577Z,10.70
2019-02-20T18:53:31.004Z,10.70
2019-02-20T18:56:09.871Z,10.70
2019-02-20T18:58:50.286Z,10.70
2019-02-20T19:01:23.676Z,10.60
2019-02-20T19:04:00.535Z,10.60
2019-02-20T19:06:40.542Z,10.50
2019-02-20T19:09:32.356Z,10.50
2019-02-20T19:12:36.488Z,10.40
2019-02-20T19:15:41.767Z,10.40
2019-02-20T19:19:02.433Z,10.40
2019-02-20T19:21:57.064Z,10.40
2019-02-20T19:25:10.846Z,10.30
2019-02-20T19:28:22.655Z,10.30
2019-02-20T19:31:48.751Z,10.30
2019-02-20T19:35:18.685Z,10.20
2019-02-20T19:38:27.786Z,10.20
2019-02-20T19:41:54.126Z,10.20
2019-02-20T19:44:36.832Z,10.20
2019-02-20T19:47:46.321Z,10.20
2019-02-20T19:50:56.124Z,10.10
2019-02-20T19:53:47.587Z,10.10
2019-02-20T19:57:02.733Z,10.10
2019-02-20T20:00:03.227Z,10.00
2019-02-20T20:03:23.548Z,10.00
2019-02-20T20:06:26.530Z,9.90
2019-02-20T20:09:45.696Z,9.90
2019-02-20T20:13:20.385Z,9.80
2019-02-20T20:16:44.850Z,9.80
2019-02-20T20:19:50.479Z,9.70
2019-02-20T20:23:01.819Z,9.70
2019-02-20T20:25:48.688Z,9.60
2019-02-20T20:28:47.627Z,9.60
2019-02-20T20:31:44.766Z,9.60
2019-02-20T20:35:15.636Z,9.50
2019-02-20T20:38:14.200Z,9.40
2019-02-20T20:41:35.679Z,9.40
2019-02-20T20:44:42.340Z,9.20
2019-02-20T20:47:51.144Z,9.20
2019-02-20T20:51:28.681Z,9.20
2019-02-20T20:54:52.069Z,9.10
2019-02-20T20:58:36.329Z,9.10
2019-02-20T21:01:33.674Z,9.00
2019-02-20T21:05:22.885Z,9.00
2019-02-20T21:08:41.034Z,9.00
2019-02-20T21:12:06.651Z,9.00
2019-02-20T21:15:26.730Z,8.90
2019-02-20T21:18:43.259Z,8.80
2019-02-20T21:21:34.750Z,8.80
2019-02-20T21:24:41.655Z,8.80
2019-02-20T21:28:11.770Z,8.70
2019-02-20T21:31:09.079Z,8.70
2019-02-20T21:34:27.596Z,8.60
2019-02-20T21:37:20.794Z,8.60
2019-02-20T21:40:28.092Z,8.60
2019-02-20T21:43:56.057Z,8.50
2019-02-20T21:47:04.023Z,8.40
2019-02-20T21:50:13.312Z,8.30
2019-02-20T21:53:23.228Z,8.40
2019-02-20T21:56:25.852Z,8.30
2019-02-20T21:59:21.774Z,8.20
2019-02-20T22:02:32.651Z,8.20
2019-02-20T22:05:30.372Z,8.10
2019-02-20T22:08:26.627Z,8.00
2019-02-20T22:11:44.360Z,8.00
2019-02-20T22:14:41.641Z,7.90
2019-02-20T22:17:51.209Z,7.80
2019-02-20T22:21:00.533Z,7.80
2019-02-20T22:24:23.177Z,7.80
2019-02-20T22:27:05.869Z,7.90
2019-02-20T22:30:28.055Z,7.90
2019-02-20T22:33:42.641Z,7.90
2019-02-20T22:36:32.736Z,7.90
2019-02-20T22:39:29.724Z,7.90
2019-02-20T22:42:47.167Z,7.90
2019-02-20T22:45:55.694Z,7.90
2019-02-20T22:49:19.214Z,7.90
2019-02-20T22:52:28.713Z,7.90
2019-02-20T22:55:52.430Z,7.80
2019-02-20T22:58:46.177Z,7.80
2019-02-20T23:01:27.110Z,7.80
2019-02-20T23:04:37.873Z,7.70
2019-02-20T23:07:26.936Z,7.70
2019-02-20T23:10:34.102Z,7.60
2019-02-20T23:13:56.134Z,7.60
2019-02-20T23:16:27.236Z,7.70
2019-02-20T23:19:01.097Z,7.60
2019-02-20T23:21:32.803Z,7.50
2019-02-20T23:24:07.109Z,7.40
2019-02-20T23:26:41.147Z,7.50
2019-02-20T23:29:11.750Z,7.50
2019-02-20T23:31:42.610Z,7.50
2019-02-20T23:34:13.935Z,7.50
2019-02-20T23:36:49.404Z,7.50
2019-02-20T23:39:21.076Z,7.50
2019-02-20T23:41:51.876Z,7.50
2019-02-20T23:44:23.774Z,7.50
2019-02-20T23:46:54.678Z,7.50
2019-02-20T23:49:27.750Z,7.50
2019-02-20T23:51:57.455Z,7.50
2019-02-20T23:54:29.086Z,7.50
2019-02-20T23:57:00.063Z,7.50
2019-02-20T23:59:32.233Z,7.50
